CST,Max TemperatureF,Mean TemperatureF,Min TemperatureF,Max Dew PointF,MeanDew PointF,Min DewpointF,Max Humidity, Mean Humidity, Min Humidity, Max Sea Level PressureIn, Mean Sea Level PressureIn, Min Sea Level PressureIn, Max VisibilityMiles, Mean VisibilityMiles, Min VisibilityMiles, Max Wind SpeedMPH, Mean Wind SpeedMPH, Max Gust SpeedMPH,PrecipitationIn, CloudCover, Events, WindDirDegrees
2014-2-1,14,1,-13,3,-3,-17,86,74,61,30.21,30.07,29.94,10,10,9,12,4,13,T,4,,271
2014-2-2,8,-2,-12,-3,-10,-16,83,72,60,30.37,30.32,30.22,10,10,10,13,5,15,0.00,0,Snow,245
2014-2-3,15,-2,-19,4,-7,-24,92,76,59,30.41,30.32,30.27,10,9,5,12,3,15,0.00,0,,273
2014-2-4,15,2,-12,2,-5,-17,91,72,53,30.51,30.45,30.42,10,8,5,12,4,16,0.00,1,,354
2014-2-5,7,1,-6,-2,-6,-10,79,71,63,30.53,30.47,30.36,10,9,4,12,8,16,T,6,Snow,296
2014-2-6,1,-6,-14,-9,-12,-20,83,70,57,30.48,30.37,30.21,10,9,2,18,9,22,0.00,3,,241
2014-2-7,10,0,-10,-6,-9,-13,83,65,46,30.27,30.24,30.21,10,10,10,18,9,23,0.00,0,,227
2014-2-8,13,-3,-19,6,-6,-23,82,73,63,30.25,30.21,30.16,10,9,7,6,1,,T,5,Snow,251
2014-2-9,10,1,-9,5,-7,-14,88,69,49,30.41,30.28,30.18,10,9,5,16,8,21,T,2,,282
2014-2-10,2,-7,-17,-11,-15,-21,81,69,56,30.54,30.50,30.42,10,10,10,14,6,18,0.00,0,,257
2014-2-11,11,-7,-25,-1,-10,-27,91,71,50,30.54,30.39,30.14,10,10,7,20,7,22,T,2,Snow,180
2014-2-12,21,13,4,12,6,1,92,83,73,30.18,30.09,29.91,10,5,1,14,3,17,0.10,7,Snow,177
2014-2-13,29,17,4,21,12,2,88,80,71,29.92,29.61,29.44,10,6,1,23,12,30,0.07,7,Snow,204
2014-2-14,17,8,-2,7,-1,-8,83,66,49,30.08,29.89,29.69,10,10,8,14,8,18,T,2,Snow,304
2014-2-15,18,3,-12,14,5,-17,88,71,54,30.08,29.96,29.84,10,6,1,16,5,20,0.04,6,Snow,172
2014-2-16,21,12,2,12,5,-1,95,72,49,30.29,30.20,30.06,10,10,9,17,7,23,0.00,2,,51
2014-2-17,25,18,11,21,17,8,92,77,62,30.16,29.81,29.67,10,3,0,18,8,27,0.35,7,Fog-Snow,160
2014-2-18,38,24,10,24,16,8,96,78,59,29.84,29.71,29.58,10,5,0,13,5,16,0.00,2,Fog,188
2014-2-19,41,28,14,29,23,14,100,80,59,29.87,29.82,29.74,10,10,4,14,7,17,0.00,1,,209
2014-2-20,38,35,31,33,30,22,96,79,61,29.78,29.34,29.05,10,5,0,23,9,30,0.78,8,Fog-Rain-Snow,31
2014-2-21,31,21,11,29,10,5,92,83,73,29.75,29.38,29.05,10,4,1,29,19,42,0.05,8,Snow,262
2014-2-22,17,12,6,6,2,-1,80,70,59,30.13,29.96,29.77,10,10,10,21,12,28,0.00,2,,259
2014-2-23,17,9,1,4,0,-5,79,67,54,30.25,30.20,30.14,10,9,2,23,12,28,0.00,0,,266
2014-2-24,12,5,-2,3,-2,-7,87,73,58,30.33,30.30,30.25,10,10,7,17,8,23,T,2,,269
2014-2-25,8,1,-7,3,-7,-15,83,69,54,30.33,30.29,30.23,10,9,3,18,11,24,T,1,,273
2014-2-26,16,1,-15,9,-3,-20,74,60,45,30.33,29.79,29.54,10,7,0,31,14,39,T,5,Snow,272
2014-2-27,1,-10,-22,-8,-21,-26,78,60,41,30.24,30.15,29.82,10,10,3,23,7,30,0.00,1,Snow,296
2014-2-28,10,-6,-23,5,-5,-28,86,69,51,30.19,30.03,29.91,10,6,0,14,4,17,0.23,6,Fog-Snow,150